Time;durP1;ratioP1;P1;durP2;ratioP2;P2;SDS_P1;SDS_P2;PMS_P1;PMS_P2;Temp;Humidity;BMP_temperature;BMP_pressure;BME280_temperature;BME280_humidity;BME280_pressure;Samples;Min_cycle;Max_cycle;Signal;HPM_P1;HPM_P2
2023/03/12 00:00:20;;;;;;;4.13;1.17;;;;;;;-1.43;55.37;101106.72;5001284;28;20296;-69
2023/03/12 00:02:46;;;;;;;2.50;1.80;;;;;;;-1.40;55.44;101113.59;5009247;28;20405;-76
2023/03/12 00:05:11;;;;;;;6.80;1.90;;;;;;;-1.38;54.99;101110.19;5021739;28;20078;-73
2023/03/12 00:07:38;;;;;;;4.53;1.27;;;;;;;-1.33;54.69;101107.72;5019158;28;20579;-73
2023/03/12 00:10:05;;;;;;;4.30;1.98;;;;;;;-1.39;54.87;101112.75;5021660;28;20545;-71
2023/03/12 00:12:30;;;;;;;8.07;2.75;;;;;;;-1.38;54.60;101117.03;5003137;28;20045;-74
2023/03/12 00:14:56;;;;;;;5.93;2.50;;;;;;;-1.36;54.38;101106.81;4985993;28;20032;-71
2023/03/12 00:17:21;;;;;;;9.43;2.78;;;;;;;-1.48;54.21;101115.19;5020799;28;20550;-75
2023/03/12 00:19:51;;;;;;;4.22;2.38;;;;;;;-1.60;54.05;101108.19;4990104;28;20040;-75
2023/03/12 00:22:17;;;;;;;3.03;2.33;;;;;;;-1.66;54.06;101103.00;4992393;28;20617;-69
2023/03/12 00:24:42;;;;;;;3.63;1.90;;;;;;;-1.67;53.88;101106.38;5001344;28;20056;-69
2023/03/12 00:27:08;;;;;;;2.50;1.75;;;;;;;-1.74;53.92;101108.00;5000994;28;20057;-79
2023/03/12 00:29:34;;;;;;;5.13;1.77;;;;;;;-1.83;54.36;101112.97;5010787;28;20021;-71
2023/03/12 00:32:00;;;;;;;5.57;2.08;;;;;;;-1.86;54.93;101108.69;4990394;28;20032;-74
2023/03/12 00:34:25;;;;;;;4.40;2.08;;;;;;;-1.82;54.52;101110.44;5024063;28;20939;-74
2023/03/12 00:36:51;;;;;;;3.72;2.47;;;;;;;-1.80;54.25;101108.78;5020692;28;20490;-68
2023/03/12 00:39:16;;;;;;;3.90;1.80;;;;;;;-1.83;54.20;101107.84;5020977;28;20029;-69
2023/03/12 00:41:41;;;;;;;11.68;2.70;;;;;;;-1.92;54.74;101108.56;5019603;28;20048;-69
2023/03/12 00:44:07;;;;;;;6.75;2.97;;;;;;;-1.87;54.82;101106.94;5009276;28;20068;-67
2023/03/12 00:46:32;;;;;;;3.33;2.05;;;;;;;-1.82;54.65;101097.63;5026595;28;20029;-71
2023/03/12 00:48:58;;;;;;;5.20;1.90;;;;;;;-1.83;54.96;101102.72;5025864;28;20156;-68
2023/03/12 00:51:23;;;;;;;6.20;3.38;;;;;;;-1.89;55.47;101100.06;5021012;28;20521;-70
2023/03/12 00:53:49;;;;;;;4.22;2.65;;;;;;;-1.83;55.26;101097.59;5020572;28;20152;-71
2023/03/12 00:56:14;;;;;;;7.85;1.92;;;;;;;-1.89;54.86;101093.25;5020913;28;20037;-66
2023/03/12 00:58:41;;;;;;;5.22;1.92;;;;;;;-1.93;54.67;101091.50;5020139;28;20057;-68
2023/03/12 01:01:07;;;;;;;2.60;1.05;;;;;;;-2.00;54.62;101092.22;5021050;28;20040;-68
2023/03/12 01:03:32;;;;;;;2.55;1.77;;;;;;;-1.96;54.69;101086.31;5010582;28;20880;-69
2023/03/12 01:05:58;;;;;;;1.95;1.55;;;;;;;-1.98;54.96;101082.84;5005949;28;20125;-71
2023/03/12 01:08:23;;;;;;;7.00;1.52;;;;;;;-1.89;54.83;101089.81;4997825;28;20123;-69
2023/03/12 01:10:49;;;;;;;3.83;2.17;;;;;;;-2.05;54.86;101088.72;4997411;28;20033;-71
2023/03/12 01:13:16;;;;;;;5.13;1.40;;;;;;;-2.04;54.95;101083.63;5003006;28;20458;-72
2023/03/12 01:15:41;;;;;;;3.78;1.60;;;;;;;-1.94;54.77;101084.63;5000470;28;20057;-70
2023/03/12 01:18:07;;;;;;;2.42;1.90;;;;;;;-1.88;54.96;101089.84;4999104;28;20046;-72
2023/03/12 01:20:34;;;;;;;2.90;2.05;;;;;;;-2.06;55.63;101087.03;5006329;28;20036;-73
2023/03/12 01:23:00;;;;;;;4.00;2.28;;;;;;;-2.02;55.32;101079.41;5000427;28;20049;-72
2023/03/12 01:25:25;;;;;;;6.55;1.98;;;;;;;-2.00;55.43;101081.97;5001685;28;20545;-72
2023/03/12 01:27:51;;;;;;;2.83;1.70;;;;;;;-2.10;55.55;101082.69;5000555;28;20045;-73
2023/03/12 01:30:17;;;;;;;5.10;1.80;;;;;;;-2.01;55.49;101072.56;4998588;28;20037;-72
2023/03/12 01:32:43;;;;;;;6.15;2.88;;;;;;;-2.08;55.38;101081.88;5007588;28;20128;-71
2023/03/12 01:35:08;;;;;;;5.82;2.33;;;;;;;-2.30;55.95;101075.53;5019691;28;20067;-73
2023/03/12 01:37:34;;;;;;;8.68;2.78;;;;;;;-2.07;55.27;101069.91;5012544;28;21235;-70
2023/03/12 01:39:59;;;;;;;7.80;3.53;;;;;;;-2.26;55.97;101077.31;5006274;28;20441;-71
2023/03/12 01:42:25;;;;;;;4.93;2.90;;;;;;;-2.17;55.47;101075.75;4998773;28;20071;-71
2023/03/12 01:44:57;;;;;;;4.70;2.50;;;;;;;-2.23;55.67;101079.91;4993773;28;20029;-73
2023/03/12 01:47:23;;;;;;;7.07;2.70;;;;;;;-2.24;55.48;101079.91;5007212;28;20041;-75
2023/03/12 01:49:51;;;;;;;5.28;2.60;;;;;;;-2.22;55.49;101075.66;5008292;28;20033;-76
2023/03/12 01:52:23;;;;;;;5.70;2.25;;;;;;;-2.24;55.74;101075.63;5019314;28;20421;-75
2023/03/12 01:55:00;;;;;;;3.40;2.25;;;;;;;-2.11;55.73;101073.25;5020162;28;20034;-76
2023/03/12 01:57:35;;;;;;;2.25;1.67;;;;;;;-2.12;55.70;101068.97;5032390;28;20262;-76
2023/03/12 02:00:12;;;;;;;5.38;2.25;;;;;;;-2.06;55.52;101069.09;5028320;28;20082;-75
2023/03/12 02:02:43;;;;;;;7.30;2.70;;;;;;;-2.10;55.78;101064.75;5027319;28;20065;-73
2023/03/12 02:05:24;;;;;;;3.97;2.75;;;;;;;-2.02;55.37;101065.75;5012656;28;20040;-73
2023/03/12 02:07:50;;;;;;;5.85;2.55;;;;;;;-2.15;55.82;101066.38;5014124;28;20053;-74
2023/03/12 02:10:16;;;;;;;11.50;3.40;;;;;;;-2.13;55.42;101062.16;5022532;28;20059;-74
2023/03/12 02:12:42;;;;;;;3.08;2.00;;;;;;;-2.29;55.51;101056.78;5008373;28;20050;-71
2023/03/12 02:15:08;;;;;;;3.60;1.73;;;;;;;-2.26;55.67;101051.72;5024045;28;20021;-72
2023/03/12 02:17:35;;;;;;;5.60;1.73;;;;;;;-2.39;55.51;101060.03;5016283;28;20069;-74
2023/03/12 02:20:40;;;;;;;7.30;1.90;;;;;;;-2.39;55.88;101057.47;5009151;28;20034;-74
2023/03/12 02:23:11;;;;;;;4.18;2.25;;;;;;;-2.30;55.60;101057.59;5020335;28;20060;-71
2023/03/12 02:25:41;;;;;;;6.95;1.65;;;;;;;-2.41;55.56;101054.00;5026913;28;20482;-70
2023/03/12 02:28:14;;;;;;;4.05;2.08;;;;;;;-2.37;55.74;101048.13;5041979;28;20425;-72
2023/03/12 02:30:43;;;;;;;6.00;2.10;;;;;;;-2.40;55.91;101047.19;5035810;28;20060;-70
2023/03/12 02:33:10;;;;;;;9.00;1.83;;;;;;;-2.47;55.58;101048.78;5027775;28;20047;-70
2023/03/12 02:35:36;;;;;;;2.92;2.17;;;;;;;-2.58;55.95;101048.63;5029333;28;20040;-70
2023/03/12 02:38:02;;;;;;;7.53;2.45;;;;;;;-2.45;55.57;101042.00;5026565;28;20033;-70
2023/03/12 02:40:33;;;;;;;5.60;2.22;;;;;;;-2.62;56.07;101044.28;5023512;28;20106;-69
2023/03/12 02:43:00;;;;;;;6.50;1.90;;;;;;;-2.48;55.73;101047.06;5024721;28;20048;-71
2023/03/12 02:45:28;;;;;;;4.05;1.80;;;;;;;-2.51;55.99;101044.47;5027849;28;20044;-72
2023/03/12 02:47:54;;;;;;;5.78;1.77;;;;;;;-2.49;55.87;101037.66;5030408;28;20049;-67
2023/03/12 02:50:20;;;;;;;7.68;1.70;;;;;;;-2.56;55.94;101039.25;5018235;28;20025;-71
2023/03/12 02:52:45;;;;;;;2.83;1.73;;;;;;;-2.55;55.69;101040.13;5012980;28;20056;-69
2023/03/12 02:55:11;;;;;;;2.38;1.30;;;;;;;-2.52;55.88;101042.72;5001006;28;20582;-68
2023/03/12 02:57:37;;;;;;;5.90;1.20;;;;;;;-2.49;55.65;101037.66;5008448;28;20041;-70
2023/03/12 03:00:08;;;;;;;3.63;1.13;;;;;;;-2.69;56.07;101040.75;5020608;28;20040;-73
2023/03/12 03:02:34;;;;;;;4.00;1.67;;;;;;;-2.75;56.24;101042.34;5022022;28;22072;-73
2023/03/12 03:04:59;;;;;;;5.38;1.48;;;;;;;-2.58;55.89;101042.63;5022259;28;20752;-73
2023/03/12 03:07:25;;;;;;;3.00;1.20;;;;;;;-2.54;55.94;101034.16;5023168;28;20232;-72
2023/03/12 03:09:50;;;;;;;2.58;1.38;;;;;;;-2.58;56.04;101032.38;5025149;28;20029;-75
2023/03/12 03:12:16;;;;;;;3.83;1.45;;;;;;;-2.34;55.50;101032.78;5001843;28;20056;-75
2023/03/12 03:14:42;;;;;;;1.98;1.05;;;;;;;-2.33;55.22;101038.78;5008507;28;20030;-75
2023/03/12 03:17:08;;;;;;;4.00;1.83;;;;;;;-2.44;55.33;101036.06;5027765;28;20037;-69
2023/03/12 03:19:33;;;;;;;3.95;1.42;;;;;;;-2.28;55.27;101037.16;5021101;28;20032;-67
2023/03/12 03:21:59;;;;;;;3.17;1.30;;;;;;;-2.33;55.36;101037.09;5024775;28;20044;-69
2023/03/12 03:24:24;;;;;;;3.38;1.95;;;;;;;-2.36;55.16;101036.16;5022317;28;20032;-70
2023/03/12 03:26:50;;;;;;;5.43;1.67;;;;;;;-2.34;55.40;101031.94;5021775;28;20064;-69
2023/03/12 03:29:15;;;;;;;5.47;1.80;;;;;;;-2.35;55.20;101038.75;5027908;28;21050;-69
2023/03/12 03:31:41;;;;;;;5.95;1.75;;;;;;;-2.42;55.01;101031.81;5029498;28;20033;-71
2023/03/12 03:34:07;;;;;;;6.97;2.10;;;;;;;-2.46;55.10;101027.50;5022796;28;20045;-70
2023/03/12 03:36:33;;;;;;;6.57;2.53;;;;;;;-2.52;55.20;101027.38;5010394;28;20029;-69
2023/03/12 03:39:09;;;;;;;6.57;2.22;;;;;;;-2.60;55.11;101024.72;5027195;28;20052;-70
2023/03/12 03:41:35;;;;;;;4.93;1.83;;;;;;;-2.64;54.93;101025.47;5025785;28;20040;-70
2023/03/12 03:44:00;;;;;;;5.97;1.90;;;;;;;-2.66;55.20;101024.59;5023342;28;20045;-69
2023/03/12 03:46:28;;;;;;;4.65;2.35;;;;;;;-2.69;55.53;101020.28;5010917;28;20036;-69
2023/03/12 03:48:59;;;;;;;5.78;1.73;;;;;;;-2.75;55.11;101015.06;5025062;28;20577;-70
2023/03/12 03:51:26;;;;;;;2.65;1.73;;;;;;;-2.75;55.35;101015.06;5006367;28;20488;-69
2023/03/12 03:53:59;;;;;;;5.60;1.55;;;;;;;-2.74;55.47;101014.22;5021270;28;20122;-67
2023/03/12 03:56:25;;;;;;;5.93;1.98;;;;;;;-2.69;55.45;101015.19;5018724;28;20037;-69
2023/03/12 03:58:51;;;;;;;2.65;2.00;;;;;;;-2.74;55.37;101015.91;5023136;28;20121;-70
2023/03/12 04:01:19;;;;;;;6.25;1.90;;;;;;;-2.69;55.63;101022.84;5023746;28;20508;-67
2023/03/12 04:03:46;;;;;;;2.55;1.73;;;;;;;-2.59;55.06;101026.41;5023229;28;20137;-68
2023/03/12 04:06:12;;;;;;;4.55;1.55;;;;;;;-2.62;55.06;101013.59;5021984;28;20028;-72
2023/03/12 04:08:38;;;;;;;2.83;1.52;;;;;;;-2.64;55.14;101013.53;5022509;28;20748;-72
2023/03/12 04:11:09;;;;;;;6.35;1.40;;;;;;;-2.61;55.16;101017.00;5022930;28;20045;-72
2023/03/12 04:13:35;;;;;;;2.92;1.00;;;;;;;-2.59;55.11;101012.75;5034330;28;20102;-73
2023/03/12 04:16:01;;;;;;;12.65;1.70;;;;;;;-2.68;55.40;101010.91;5026119;28;20040;-73
2023/03/12 04:18:27;;;;;;;5.32;1.13;;;;;;;-2.61;55.47;101006.75;5017908;28;20040;-68
2023/03/12 04:20:53;;;;;;;5.30;1.95;;;;;;;-2.46;55.20;101007.00;5024143;28;20398;-75
2023/03/12 04:23:18;;;;;;;3.17;1.73;;;;;;;-2.47;55.35;101010.38;5009584;28;20041;-74
2023/03/12 04:25:44;;;;;;;4.45;1.40;;;;;;;-2.51;54.94;101008.66;5005181;28;20108;-73
2023/03/12 04:28:09;;;;;;;3.70;2.10;;;;;;;-2.54;55.33;100994.06;5005438;28;20064;-75
2023/03/12 04:30:37;;;;;;;6.35;1.65;;;;;;;-2.45;55.22;100995.91;5001234;28;20145;-68
2023/03/12 04:33:04;;;;;;;3.97;1.75;;;;;;;-2.48;55.02;100994.19;5009711;28;20329;-69
2023/03/12 04:35:31;;;;;;;4.43;1.45;;;;;;;-2.50;54.94;100989.88;5011636;28;20556;-69
2023/03/12 04:37:56;;;;;;;2.47;1.50;;;;;;;-2.55;54.91;100981.28;5010355;28;20073;-69
2023/03/12 04:40:23;;;;;;;3.47;1.40;;;;;;;-2.49;54.73;100983.91;4992097;28;20037;-71
2023/03/12 04:42:49;;;;;;;4.68;1.52;;;;;;;-2.51;55.22;100978.78;4996788;28;20081;-66
2023/03/12 04:45:14;;;;;;;5.53;1.63;;;;;;;-2.52;55.22;100971.06;4997228;28;20143;-65
2023/03/12 04:47:43;;;;;;;4.60;1.42;;;;;;;-2.47;55.23;100974.56;5004385;28;20215;-74
2023/03/12 04:50:11;;;;;;;6.70;2.00;;;;;;;-2.44;55.19;100965.25;5014601;28;20159;-69
2023/03/12 04:52:37;;;;;;;4.10;2.13;;;;;;;-2.35;55.03;100961.09;5002198;28;20048;-69
2023/03/12 04:55:05;;;;;;;4.45;1.60;;;;;;;-2.34;54.72;100961.09;4999760;28;20462;-68
2023/03/12 04:57:30;;;;;;;4.25;1.30;;;;;;;-2.29;54.71;100956.94;4997050;28;20102;-69
2023/03/12 04:59:56;;;;;;;5.78;2.03;;;;;;;-2.28;54.71;100956.09;4997912;28;20026;-69
2023/03/12 05:02:22;;;;;;;3.97;1.38;;;;;;;-2.24;54.54;100951.88;4998007;28;20510;-69
2023/03/12 05:04:49;;;;;;;4.97;2.05;;;;;;;-2.29;54.94;100953.50;5005221;28;20064;-69
2023/03/12 05:07:15;;;;;;;6.13;1.45;;;;;;;-2.24;54.76;100944.19;5002666;28;20514;-73
2023/03/12 05:09:40;;;;;;;6.63;1.75;;;;;;;-2.25;54.89;100935.63;4997667;28;20044;-75
2023/03/12 05:12:06;;;;;;;6.07;2.00;;;;;;;-2.34;55.29;100935.50;5006291;28;20634;-70
2023/03/12 05:14:32;;;;;;;3.15;1.67;;;;;;;-2.26;55.16;100933.91;5027109;28;20426;-71
2023/03/12 05:16:57;;;;;;;2.80;1.88;;;;;;;-2.22;54.48;100937.41;5022224;28;20021;-72
2023/03/12 05:19:23;;;;;;;9.32;1.92;;;;;;;-2.37;54.67;100932.06;5018938;28;20037;-70
2023/03/12 05:21:48;;;;;;;4.65;1.95;;;;;;;-2.32;54.87;100930.41;5018562;28;20036;-70
2023/03/12 05:24:14;;;;;;;1.98;1.42;;;;;;;-2.23;54.53;100930.53;5027953;28;20711;-71
2023/03/12 05:26:41;;;;;;;9.25;2.47;;;;;;;-2.18;54.35;100930.59;5010022;28;20525;-70
2023/03/12 05:29:20;;;;;;;4.43;1.77;;;;;;;-2.23;54.23;100921.16;5020369;28;20041;-69
2023/03/12 05:31:45;;;;;;;5.18;1.55;;;;;;;-2.28;54.07;100920.22;5005575;28;20043;-69
2023/03/12 05:34:12;;;;;;;2.30;1.48;;;;;;;-2.25;54.51;100915.16;5022291;28;20047;-69
2023/03/12 05:36:39;;;;;;;6.90;2.05;;;;;;;-2.23;54.26;100908.34;5024676;28;20041;-70
2023/03/12 05:39:05;;;;;;;4.03;1.55;;;;;;;-2.17;53.87;100911.84;5008550;28;20072;-73
2023/03/12 05:41:32;;;;;;;2.85;1.65;;;;;;;-2.17;53.97;100919.53;4997808;28;20042;-69
2023/03/12 05:44:04;;;;;;;2.15;1.52;;;;;;;-2.17;54.09;100925.50;5021670;28;20043;-69
2023/03/12 05:46:29;;;;;;;5.68;1.77;;;;;;;-2.12;54.06;100912.75;5024892;28;20389;-69
2023/03/12 05:48:56;;;;;;;2.75;1.45;;;;;;;-2.13;53.66;100913.63;5024419;28;20046;-69
2023/03/12 05:51:22;;;;;;;3.10;1.27;;;;;;;-2.07;54.12;100919.69;5020158;28;20405;-68
2023/03/12 05:53:48;;;;;;;8.30;1.35;;;;;;;-2.04;53.90;100913.72;5020691;28;20069;-69
2023/03/12 05:56:16;;;;;;;9.60;1.40;;;;;;;-2.03;53.70;100915.44;5023417;28;20037;-67
2023/03/12 05:58:42;;;;;;;8.20;1.83;;;;;;;-1.97;53.86;100910.41;5023989;28;20655;-69
2023/03/12 06:01:14;;;;;;;5.78;1.67;;;;;;;-1.92;53.47;100913.88;5026006;28;20030;-67
2023/03/12 06:03:41;;;;;;;2.90;1.48;;;;;;;-1.85;53.14;100917.38;5023426;28;20049;-69
2023/03/12 06:06:08;;;;;;;3.15;1.98;;;;;;;-1.89;53.18;100908.81;5003957;28;20037;-70
2023/03/12 06:08:33;;;;;;;3.05;1.27;;;;;;;-1.87;53.16;100909.66;5005278;28;20037;-69
2023/03/12 06:10:59;;;;;;;5.00;2.13;;;;;;;-1.82;53.30;100897.78;5023711;28;20251;-70
2023/03/12 06:13:26;;;;;;;3.08;1.42;;;;;;;-1.87;52.91;100885.75;5022845;28;20124;-70
2023/03/12 06:15:52;;;;;;;2.47;1.63;;;;;;;-1.87;53.22;100885.75;5038835;28;20112;-73
2023/03/12 06:18:18;;;;;;;3.55;1.30;;;;;;;-1.84;53.15;100890.91;5008283;28;20045;-73
2023/03/12 06:20:43;;;;;;;7.80;1.27;;;;;;;-1.85;53.11;100890.03;5005940;28;20026;-72
2023/03/12 06:23:09;;;;;;;5.72;1.35;;;;;;;-1.76;52.82;100888.44;5016113;28;20215;-73
2023/03/12 06:25:34;;;;;;;2.85;1.48;;;;;;;-1.82;53.05;100884.13;5020513;28;20757;-72
2023/03/12 06:28:00;;;;;;;10.55;1.55;;;;;;;-1.80;52.55;100896.09;5022285;28;20585;-71
2023/03/12 06:30:26;;;;;;;3.13;1.58;;;;;;;-1.76;52.76;100893.56;5021884;28;20354;-72
2023/03/12 06:32:53;;;;;;;4.20;2.05;;;;;;;-1.74;53.07;100890.16;5012566;28;20053;-71
2023/03/12 06:35:18;;;;;;;2.40;1.40;;;;;;;-1.68;52.55;100897.06;5001349;28;20045;-72
2023/03/12 06:37:44;;;;;;;5.60;1.48;;;;;;;-1.56;52.12;100898.91;5011018;28;20054;-73
2023/03/12 06:40:11;;;;;;;3.13;1.27;;;;;;;-1.34;51.97;100889.72;5027019;28;20056;-74
2023/03/12 06:42:38;;;;;;;2.78;1.00;;;;;;;-1.23;51.63;100886.41;5024611;28;20136;-74
2023/03/12 06:45:04;;;;;;;6.22;1.52;;;;;;;-1.28;51.50;100882.09;5026619;28;20505;-74
2023/03/12 06:47:30;;;;;;;3.70;1.20;;;;;;;-1.22;51.58;100871.88;5021639;28;20258;-71
2023/03/12 06:49:56;;;;;;;1.98;1.77;;;;;;;-1.21;51.46;100873.59;5023158;28;20086;-71
2023/03/12 06:52:22;;;;;;;7.05;1.15;;;;;;;-1.22;51.74;100869.31;5020896;28;20128;-70
2023/03/12 06:54:47;;;;;;;6.32;1.17;;;;;;;-1.17;51.47;100870.22;5022528;28;20222;-70
2023/03/12 06:57:15;;;;;;;5.57;1.60;;;;;;;-1.30;51.22;100868.41;5021318;28;20068;-74
2023/03/12 06:59:41;;;;;;;2.20;1.27;;;;;;;-1.22;51.55;100864.19;5028595;28;20541;-73
2023/03/12 07:02:10;;;;;;;3.65;1.70;;;;;;;-1.43;51.79;100865.72;5021957;28;20032;-73
2023/03/12 07:04:36;;;;;;;4.05;1.85;;;;;;;-1.11;51.31;100872.81;5020464;28;20402;-73
2023/03/12 07:07:01;;;;;;;7.05;1.77;;;;;;;-1.24;50.84;100869.31;5023523;28;20116;-73
2023/03/12 07:09:27;;;;;;;4.07;1.40;;;;;;;-1.25;51.05;100877.84;5023812;28;20056;-76
2023/03/12 07:11:53;;;;;;;2.55;1.45;;;;;;;-1.18;51.01;100878.75;5019434;28;20083;-75
2023/03/12 07:14:20;;;;;;;5.00;2.05;;;;;;;-1.10;50.58;100877.13;5027786;28;20033;-77
2023/03/12 07:16:46;;;;;;;2.30;1.33;;;;;;;-1.12;50.46;100875.41;5023649;28;20047;-76
2023/03/12 07:19:12;;;;;;;2.22;1.05;;;;;;;-1.17;50.40;100865.09;5023605;28;20043;-72
2023/03/12 07:21:38;;;;;;;2.38;1.40;;;;;;;-1.19;50.53;100864.22;5018194;28;20033;-70
2023/03/12 07:24:06;;;;;;;2.22;0.98;;;;;;;-1.23;50.73;100859.91;5023858;28;20152;-70
2023/03/12 07:26:34;;;;;;;4.68;1.33;;;;;;;-1.02;50.30;100859.25;5020501;28;20029;-71
2023/03/12 07:29:00;;;;;;;4.63;1.17;;;;;;;-1.03;50.19;100854.97;5023918;28;20226;-71
2023/03/12 07:31:27;;;;;;;4.72;0.95;;;;;;;-0.85;49.84;100861.94;5019931;28;20741;-70
2023/03/12 07:33:52;;;;;;;4.30;1.15;;;;;;;-0.74;49.29;100862.88;5023428;28;21211;-74
2023/03/12 07:36:18;;;;;;;2.40;1.10;;;;;;;-0.65;49.00;100860.38;5022871;28;20033;-67
2023/03/12 07:38:44;;;;;;;7.15;1.38;;;;;;;-0.53;48.88;100851.00;5020140;28;20433;-67
2023/03/12 07:41:10;;;;;;;2.92;1.50;;;;;;;-0.49;48.79;100843.34;5020089;28;20040;-67
2023/03/12 07:43:35;;;;;;;4.07;1.25;;;;;;;-0.48;48.77;100842.50;5017938;28;20136;-68
2023/03/12 07:46:01;;;;;;;1.85;1.10;;;;;;;-0.41;48.57;100843.41;5023473;28;20033;-65
2023/03/12 07:48:27;;;;;;;3.28;1.65;;;;;;;-0.44;48.24;100848.50;5023321;28;20049;-64
2023/03/12 07:50:53;;;;;;;2.38;1.42;;;;;;;-0.37;47.83;100852.81;5031310;28;20041;-67
2023/03/12 07:53:19;;;;;;;6.90;1.17;;;;;;;-0.40;47.91;100852.81;5029964;28;20041;-67
2023/03/12 07:55:46;;;;;;;2.22;0.95;;;;;;;-0.54;48.02;100844.19;5025790;28;20044;-68
2023/03/12 07:58:12;;;;;;;3.28;1.40;;;;;;;-0.49;47.74;100835.63;5021055;28;20204;-68
2023/03/12 08:00:37;;;;;;;6.32;1.10;;;;;;;-0.20;47.19;100822.91;5018731;28;20745;-66
2023/03/12 08:03:03;;;;;;;2.60;1.42;;;;;;;-0.33;47.18;100813.44;5010896;28;20033;-68
2023/03/12 08:05:29;;;;;;;4.28;1.58;;;;;;;-0.00;46.84;100809.28;4998366;28;20072;-68
2023/03/12 08:07:55;;;;;;;3.15;1.80;;;;;;;-0.15;46.57;100804.94;5008837;28;20124;-68
2023/03/12 08:10:22;;;;;;;5.20;1.70;;;;;;;0.26;46.08;100805.06;5020137;28;20140;-67
2023/03/12 08:12:48;;;;;;;5.97;1.73;;;;;;;0.65;45.22;100798.22;5020039;28;20120;-67
2023/03/12 08:15:14;;;;;;;4.13;1.73;;;;;;;0.59;44.92;100798.25;5020751;28;20032;-68
2023/03/12 08:17:40;;;;;;;5.05;1.58;;;;;;;0.39;45.23;100795.66;5019206;28;20037;-67
2023/03/12 08:20:08;;;;;;;4.70;1.67;;;;;;;0.22;45.46;100790.50;5021073;28;20508;-68
2023/03/12 08:22:38;;;;;;;2.22;1.35;;;;;;;0.47;45.81;100795.66;5018490;28;20465;-71
2023/03/12 08:25:04;;;;;;;8.85;1.80;;;;;;;0.73;45.32;100787.09;5019541;28;20162;-71
2023/03/12 08:27:30;;;;;;;3.28;1.58;;;;;;;0.88;44.43;100781.91;5017753;28;20497;-72
2023/03/12 08:29:55;;;;;;;3.95;1.38;;;;;;;1.30;43.31;100768.13;5019325;28;20116;-69
2023/03/12 08:32:21;;;;;;;2.40;1.85;;;;;;;1.12;44.32;100770.72;5017542;28;20049;-72
2023/03/12 08:34:46;;;;;;;3.45;2.33;;;;;;;1.09;44.30;100774.16;5018770;28;21483;-68
2023/03/12 08:37:12;;;;;;;6.13;2.13;;;;;;;0.94;44.59;100771.63;5021431;28;20119;-71
2023/03/12 08:39:37;;;;;;;5.88;2.30;;;;;;;0.68;44.54;100772.53;5016988;28;20083;-69
2023/03/12 08:42:04;;;;;;;6.40;2.05;;;;;;;0.66;44.92;100765.66;5022138;28;20082;-69
2023/03/12 08:44:30;;;;;;;5.00;2.10;;;;;;;0.52;45.61;100778.50;4996769;28;20068;-70
2023/03/12 08:46:56;;;;;;;13.55;2.88;;;;;;;0.53;45.77;100777.66;4999854;28;20030;-66
2023/03/12 08:49:22;;;;;;;3.88;2.92;;;;;;;0.33;45.17;100776.81;5020282;28;20103;-68
2023/03/12 08:51:48;;;;;;;5.82;1.90;;;;;;;0.66;44.81;100771.66;5016978;28;20026;-69
2023/03/12 08:54:13;;;;;;;6.07;2.58;;;;;;;0.63;44.98;100776.78;5020589;28;20045;-69
2023/03/12 08:56:42;;;;;;;5.53;1.95;;;;;;;0.79;45.76;100776.78;5017028;28;20425;-67
2023/03/12 08:59:12;;;;;;;4.30;2.40;;;;;;;0.54;44.82;100771.66;5000970;28;20042;-69
2023/03/12 09:01:38;;;;;;;3.95;2.08;;;;;;;0.88;44.35;100769.03;4994901;28;20095;-68
2023/03/12 09:04:05;;;;;;;6.65;2.35;;;;;;;0.96;44.51;100762.19;5000641;28;20136;-68
2023/03/12 09:06:32;;;;;;;5.57;2.08;;;;;;;1.14;43.76;100753.56;4995706;28;20124;-68
2023/03/12 09:09:03;;;;;;;4.05;2.42;;;;;;;1.24;43.54;100737.22;5001050;28;20718;-69
2023/03/12 09:11:31;;;;;;;3.45;2.03;;;;;;;1.45;43.71;100733.72;5005233;28;20029;-68
2023/03/12 09:13:58;;;;;;;5.75;2.33;;;;;;;1.20;42.78;100737.25;4999191;28;20042;-67
2023/03/12 09:16:23;;;;;;;8.85;2.42;;;;;;;1.73;42.01;100733.63;5014596;28;20037;-68
2023/03/12 09:18:49;;;;;;;5.78;2.50;;;;;;;2.08;41.80;100724.78;4998253;28;20548;-69
2023/03/12 09:21:15;;;;;;;6.50;2.10;;;;;;;2.04;41.77;100720.50;5013385;28;20038;-69
2023/03/12 09:23:40;;;;;;;6.50;2.63;;;;;;;2.19;41.95;100710.09;4997018;28;20403;-68
2023/03/12 09:26:09;;;;;;;5.63;2.53;;;;;;;2.40;40.44;100701.34;5001245;28;20099;-70
2023/03/12 09:28:35;;;;;;;5.15;2.58;;;;;;;3.22;39.68;100692.72;5014107;28;20049;-69
2023/03/12 09:31:02;;;;;;;3.88;2.15;;;;;;;3.10;38.80;100678.25;5026276;28;20390;-69
2023/03/12 09:33:28;;;;;;;5.88;2.50;;;;;;;2.99;38.93;100680.94;5007703;28;21061;-69
2023/03/12 09:35:58;;;;;;;9.85;2.88;;;;;;;2.85;39.78;100677.69;5001963;28;20506;-69
2023/03/12 09:38:24;;;;;;;4.20;2.22;;;;;;;2.24;41.09;100668.78;5019297;28;20045;-69
2023/03/12 09:40:50;;;;;;;5.13;2.60;;;;;;;1.56;42.52;100674.44;5022358;28;20111;-69
2023/03/12 09:43:35;;;;;;;5.90;2.20;;;;;;;1.73;42.60;100664.91;5017405;28;20116;-69
2023/03/12 09:46:01;;;;;;;4.72;2.35;;;;;;;1.64;42.08;100651.19;5024252;28;20025;-68
2023/03/12 09:48:31;;;;;;;9.18;3.42;;;;;;;1.23;43.07;100654.84;5020043;28;20146;-68
2023/03/12 09:51:01;;;;;;;6.82;3.55;;;;;;;0.95;43.44;100649.81;5023481;28;20029;-68
2023/03/12 09:53:35;;;;;;;7.10;2.55;;;;;;;1.64;42.43;100651.19;5010157;28;20076;-69
2023/03/12 09:56:08;;;;;;;6.07;2.80;;;;;;;1.16;43.84;100648.00;5025983;28;20083;-70
2023/03/12 09:58:37;;;;;;;4.72;2.55;;;;;;;2.06;41.50;100654.34;5018457;28;20040;-69
2023/03/12 10:01:18;;;;;;;5.25;2.30;;;;;;;1.64;43.13;100656.34;5028636;28;20148;-68
2023/03/12 10:04:20;;;;;;;5.30;2.60;;;;;;;1.17;44.37;100660.88;5019429;28;20052;-68
2023/03/12 10:06:52;;;;;;;3.53;1.98;;;;;;;0.95;45.59;100669.53;5017822;28;20037;-69
2023/03/12 10:10:00;;;;;;;5.47;2.20;;;;;;;0.89;45.96;100668.69;5001813;28;20532;-69
2023/03/12 10:12:44;;;;;;;9.10;1.70;;;;;;;0.21;47.13;100651.66;5003915;28;20130;-72
2023/03/12 10:15:37;;;;;;;4.35;2.00;;;;;;;0.65;46.91;100638.75;5020118;28;20170;-68
2023/03/12 10:18:24;;;;;;;7.05;2.28;;;;;;;0.33;47.39;100646.53;5011278;28;20042;-69
2023/03/12 10:21:14;;;;;;;8.55;2.08;;;;;;;1.11;45.84;100627.44;4998956;28;20045;-68
2023/03/12 10:23:42;;;;;;;13.38;3.05;;;;;;;0.59;47.05;100630.19;4996535;28;20128;-68
2023/03/12 10:26:11;;;;;;;5.10;1.90;;;;;;;0.92;46.32;100618.94;4999259;28;20037;-67
2023/03/12 10:28:40;;;;;;;3.70;1.83;;;;;;;0.60;46.73;100622.47;5003535;28;20048;-68
2023/03/12 10:31:15;;;;;;;4.93;2.50;;;;;;;1.36;45.57;100624.75;5006022;28;20025;-69
2023/03/12 10:33:54;;;;;;;3.95;1.73;;;;;;;1.52;45.56;100611.78;4998939;28;20049;-69
2023/03/12 10:36:24;;;;;;;3.70;2.08;;;;;;;1.38;45.71;100612.72;5002351;28;20884;-69
2023/03/12 10:38:50;;;;;;;6.22;2.00;;;;;;;0.85;46.65;100591.50;5000957;28;20045;-68
2023/03/12 10:41:20;;;;;;;10.20;2.08;;;;;;;0.39;48.47;100601.94;4999891;28;20187;-69
2023/03/12 10:43:46;;;;;;;4.53;2.13;;;;;;;0.71;48.41;100604.44;5012188;28;20081;-69
2023/03/12 10:46:28;;;;;;;5.95;2.30;;;;;;;0.09;50.17;100614.00;5021311;28;20584;-68
2023/03/12 10:49:22;;;;;;;7.65;2.35;;;;;;;0.05;50.97;100623.44;5015744;28;20041;-69
2023/03/12 10:51:58;;;;;;;5.00;2.30;;;;;;;0.13;51.34;100625.97;5024725;28;20519;-68
2023/03/12 10:54:40;;;;;;;4.05;2.17;;;;;;;0.36;50.68;100622.53;5019420;28;20055;-69
2023/03/12 10:57:06;;;;;;;5.43;2.88;;;;;;;-0.47;53.23;100632.81;5019901;28;20602;-69
2023/03/12 10:59:35;;;;;;;3.58;2.08;;;;;;;-0.01;51.92;100620.00;5020543;28;20064;-69
2023/03/12 11:02:20;;;;;;;4.05;2.15;;;;;;;0.30;51.74;100605.41;5015526;28;20115;-68
2023/03/12 11:04:50;;;;;;;4.20;2.30;;;;;;;0.06;52.32;100606.28;5000211;28;20067;-69
2023/03/12 11:07:34;;;;;;;3.25;1.90;;;;;;;-0.49;54.45;100608.84;5000398;28;20563;-68
2023/03/12 11:10:06;;;;;;;3.55;2.40;;;;;;;0.43;52.29;100601.06;5020724;28;20544;-68
2023/03/12 11:12:33;;;;;;;6.85;2.35;;;;;;;0.44;51.87;100600.25;5013291;28;20045;-68
2023/03/12 11:15:19;;;;;;;3.60;1.90;;;;;;;0.19;52.88;100600.28;5000099;28;20064;-67
2023/03/12 11:17:45;;;;;;;6.28;3.55;;;;;;;0.22;53.00;100597.69;5006913;28;20056;-66
2023/03/12 11:20:21;;;;;;;2.63;2.30;;;;;;;0.42;52.94;100596.81;5019971;28;20032;-68
2023/03/12 11:22:46;;;;;;;3.97;2.58;;;;;;;0.23;53.48;100590.84;5010436;28;20152;-67
2023/03/12 11:25:21;;;;;;;3.28;1.58;;;;;;;-0.21;54.96;100590.03;5000486;28;20033;-67
2023/03/12 11:27:51;;;;;;;7.38;2.75;;;;;;;-0.42;55.88;100590.00;4999368;28;20050;-68
2023/03/12 11:30:23;;;;;;;6.15;2.38;;;;;;;-1.38;58.53;100573.47;4998064;28;20034;-68